Onaway, Michigan
Current Conditions -  °F | °C
As of 3:05 PM on Thursday 23 Oct 2014 (Local Time) from KPZQ Reporting Station
Clear Clear  
Wind Chill: 45°   Ceiling: Unl
Heat Index: 48°   Visibility: 10mi
Dew Point: 41°   Wind: 8mph
Humidity: 76%   Direction: 40°NE
Pressure: 30.15"   Gusts: NA
Location:  45.36°N, 84.22°W
Report Text: KPZQ 231905Z AUTO 04007KT 10SM CLR 09/05 A3015 RMK AO2
Loading
Personal Weather Stations






























Interactive Weather Map
Tropical Storm Tracking
New forecast layout! Learn more

10-Day Weather Forecast

Advertisements
Track Severe Weather on mobile